createdAt,value
2023-05-04T00:05:10.757Z,5.90
2023-05-04T00:11:13.316Z,5.20
2023-05-04T00:17:15.762Z,4.50
2023-05-04T00:23:18.181Z,6.75
2023-05-04T00:29:21.524Z,5.40
2023-05-04T00:35:23.937Z,4.75
2023-05-04T00:41:26.550Z,5.18
2023-05-04T00:47:30.366Z,5.70
2023-05-04T00:53:32.958Z,5.10
2023-05-04T01:05:46.741Z,5.70
2023-05-04T01:12:19.637Z,5.22
2023-05-04T01:18:23.752Z,6.10
2023-05-04T01:24:27.242Z,6.55
2023-05-04T01:30:34.646Z,6.68
2023-05-04T01:36:37.242Z,6.70
2023-05-04T01:42:39.976Z,6.35
2023-05-04T01:54:44.275Z,6.22
2023-05-04T02:00:46.948Z,6.72
2023-05-04T02:06:49.243Z,7.80
2023-05-04T02:12:53.078Z,7.35
2023-05-04T02:18:55.616Z,7.20
2023-05-04T02:24:58.159Z,6.88
2023-05-04T02:37:04.675Z,6.88
2023-05-04T02:43:10.664Z,7.82
2023-05-04T02:49:13.089Z,7.30
2023-05-04T02:55:15.606Z,8.18
2023-05-04T03:01:18.677Z,7.53
2023-05-04T03:07:21.428Z,7.75
2023-05-04T03:19:26.560Z,7.78
2023-05-04T03:25:29.137Z,8.18
2023-05-04T03:31:31.866Z,9.10
2023-05-04T03:37:34.831Z,9.18
2023-05-04T03:43:37.393Z,8.13
2023-05-04T03:49:40.448Z,9.73
2023-05-04T03:55:42.807Z,9.45
2023-05-04T04:07:48.141Z,10.48
2023-05-04T04:19:53.582Z,9.95
2023-05-04T04:25:56.157Z,9.52
2023-05-04T04:31:58.444Z,8.98
2023-05-04T04:38:03.410Z,11.80
2023-05-04T04:44:06.111Z,8.95
2023-05-04T04:50:08.982Z,9.40
2023-05-04T04:56:11.435Z,8.90
2023-05-04T05:02:14.082Z,8.50
2023-05-04T05:08:17.104Z,10.10
2023-05-04T05:14:19.580Z,8.48
2023-05-04T05:20:22.058Z,30.65
2023-05-04T05:26:25.325Z,9.98
2023-05-04T05:32:27.698Z,9.07
2023-05-04T05:38:29.955Z,10.27
2023-05-04T05:44:32.550Z,9.73
2023-05-04T05:50:35.087Z,8.38
2023-05-04T05:56:37.693Z,7.95
2023-05-04T06:08:42.636Z,7.50
2023-05-04T06:14:44.957Z,6.28
2023-05-04T06:20:47.978Z,8.82
2023-05-04T06:26:50.187Z,8.82
2023-05-04T06:32:52.617Z,10.23
2023-05-04T06:38:56.138Z,8.57
2023-05-04T06:44:58.951Z,7.90
2023-05-04T06:51:02.317Z,7.88
2023-05-04T06:57:05.352Z,9.65
2023-05-04T07:03:08.189Z,9.60
2023-05-04T07:09:10.569Z,8.93
2023-05-04T07:15:13.217Z,8.68
2023-05-04T07:21:27.762Z,9.38
2023-05-04T07:27:31.124Z,8.65
2023-05-04T07:33:33.591Z,7.72
2023-05-04T07:39:36.989Z,7.95
2023-05-04T07:45:39.257Z,8.27
2023-05-04T07:51:44.770Z,8.85
2023-05-04T07:57:47.495Z,8.65
2023-05-04T08:03:50.099Z,7.18
2023-05-04T08:09:54.366Z,8.45
2023-05-04T08:16:01.465Z,14.02
2023-05-04T08:22:04.333Z,9.30
2023-05-04T08:28:06.924Z,8.20
2023-05-04T08:34:09.343Z,8.10
2023-05-04T08:40:12.976Z,9.15
2023-05-04T08:46:16.690Z,11.85
2023-05-04T08:52:20.464Z,8.90
2023-05-04T08:58:25.099Z,8.27
2023-05-04T09:04:29.771Z,11.40
2023-05-04T09:10:32.342Z,9.60
2023-05-04T09:16:38.219Z,11.07
2023-05-04T09:22:40.746Z,9.52
2023-05-04T09:28:44.036Z,10.35
2023-05-04T09:34:52.413Z,10.38
2023-05-04T09:40:54.768Z,8.88
2023-05-04T09:46:59.106Z,9.90
2023-05-04T09:53:02.786Z,9.52
2023-05-04T09:59:05.855Z,9.35
2023-05-04T10:05:09.776Z,9.15
2023-05-04T10:11:13.113Z,9.20
2023-05-04T10:17:27.171Z,8.77
2023-05-04T10:24:00.360Z,9.88
2023-05-04T10:30:03.085Z,9.63
2023-05-04T10:42:09.101Z,10.13
2023-05-04T10:48:11.463Z,9.50
2023-05-04T10:54:20.158Z,9.15
2023-05-04T11:00:23.589Z,9.05
2023-05-04T11:06:26.710Z,8.20
2023-05-04T11:12:29.321Z,7.25
2023-05-04T11:24:42.906Z,6.20
2023-05-04T11:30:47.025Z,6.35
2023-05-04T11:36:50.032Z,5.95
2023-05-04T11:42:56.128Z,5.38
2023-05-04T11:48:59.972Z,4.88
2023-05-04T11:55:03.907Z,5.07
2023-05-04T12:01:06.585Z,4.15
2023-05-04T12:13:18.036Z,4.32
2023-05-04T12:19:20.369Z,4.68
2023-05-04T12:25:23.375Z,4.30
2023-05-04T12:31:25.910Z,3.95
2023-05-04T12:37:28.206Z,3.97
2023-05-04T12:43:33.995Z,3.75
2023-05-04T12:49:36.577Z,4.00
2023-05-04T12:55:39.321Z,3.83
2023-05-04T13:01:44.729Z,4.03
2023-05-04T13:07:47.451Z,4.25
2023-05-04T13:19:52.147Z,5.28
2023-05-04T13:25:55.246Z,4.15
2023-05-04T13:31:59.788Z,3.83
2023-05-04T13:38:02.318Z,3.67
2023-05-04T13:50:08.266Z,3.38
2023-05-04T13:56:10.756Z,3.95
2023-05-04T14:02:13.238Z,2.83
2023-05-04T14:08:15.661Z,5.95
2023-05-04T14:14:18.039Z,3.80
2023-05-04T14:20:20.565Z,3.08
2023-05-04T14:32:25.469Z,4.97
2023-05-04T14:44:30.618Z,3.28
2023-05-04T14:50:33.375Z,3.15
2023-05-04T14:56:35.719Z,3.22
2023-05-04T15:02:42.274Z,3.90
2023-05-04T15:08:44.764Z,3.17
2023-05-04T15:14:47.272Z,3.50
2023-05-04T15:26:52.047Z,2.88
2023-05-04T15:32:54.734Z,3.33
2023-05-04T15:38:57.388Z,2.97
2023-05-04T15:51:01.972Z,3.17
2023-05-04T15:57:04.624Z,3.22
2023-05-04T16:09:10.655Z,3.50
2023-05-04T16:15:13.106Z,4.07
2023-05-04T16:21:15.854Z,3.25
2023-05-04T16:27:18.718Z,3.67
2023-05-04T16:33:21.209Z,3.40
2023-05-04T16:39:30.985Z,3.75
2023-05-04T16:45:33.440Z,3.80
2023-05-04T16:57:38.427Z,3.55
2023-05-04T17:03:40.852Z,4.07
2023-05-04T17:09:43.317Z,4.35
2023-05-04T17:15:45.559Z,4.22
2023-05-04T17:21:47.859Z,4.03
2023-05-04T17:27:50.055Z,3.60
2023-05-04T17:33:52.459Z,4.18
2023-05-04T17:39:54.873Z,5.15
2023-05-04T17:45:57.384Z,4.70
2023-05-04T17:52:01.752Z,6.63
2023-05-04T17:58:04.304Z,6.32
2023-05-04T18:10:09.356Z,6.85
2023-05-04T18:16:12.264Z,6.03
2023-05-04T18:22:14.790Z,7.57
2023-05-04T18:34:20.052Z,7.10
2023-05-04T18:40:24.243Z,7.25
2023-05-04T18:46:26.637Z,6.15
2023-05-04T18:58:31.532Z,7.07
2023-05-04T19:04:34.424Z,7.63
2023-05-04T19:10:37.118Z,7.20
2023-05-04T19:16:39.570Z,8.32
2023-05-04T19:22:41.914Z,7.20
2023-05-04T19:28:44.474Z,7.72
2023-05-04T19:34:46.729Z,8.48
2023-05-04T19:40:49.097Z,8.32
2023-05-04T19:46:51.939Z,8.77
2023-05-04T19:52:54.253Z,8.13
2023-05-04T19:58:56.304Z,7.25
2023-05-04T20:04:58.649Z,7.90
2023-05-04T20:11:01.046Z,7.28
2023-05-04T20:17:04.604Z,6.63
2023-05-04T20:23:06.796Z,7.80
2023-05-04T20:29:09.227Z,7.60
2023-05-04T20:35:11.673Z,7.78
2023-05-04T20:41:14.131Z,8.00
2023-05-04T20:47:16.855Z,7.97
2023-05-04T20:53:19.206Z,8.52
2023-05-04T20:59:21.505Z,8.45
2023-05-04T21:05:23.817Z,7.70
2023-05-04T21:11:26.229Z,8.50
2023-05-04T21:17:28.825Z,10.02
2023-05-04T21:23:32.823Z,9.07
2023-05-04T21:29:35.302Z,8.88
2023-05-04T21:35:37.921Z,8.30
2023-05-04T21:47:42.863Z,7.30
2023-05-04T21:53:45.730Z,7.13
2023-05-04T21:59:49.837Z,8.60
2023-05-04T22:05:55.756Z,7.90
2023-05-04T22:11:58.009Z,7.65
2023-05-04T22:18:00.590Z,8.70
2023-05-04T22:24:03.025Z,8.48
2023-05-04T22:30:06.401Z,8.68
2023-05-04T22:36:09.548Z,10.30
2023-05-04T22:42:12.254Z,10.48
2023-05-04T22:48:15.460Z,10.57
2023-05-04T22:54:18.103Z,8.80
2023-05-04T23:00:21.361Z,8.80
2023-05-04T23:06:24.151Z,7.90
2023-05-04T23:12:27.873Z,8.40
2023-05-04T23:18:30.375Z,9.15
2023-05-04T23:24:32.710Z,7.97
2023-05-04T23:30:35.156Z,8.80
2023-05-04T23:36:37.588Z,8.68
2023-05-04T23:42:40.054Z,8.68
2023-05-04T23:48:42.338Z,9.15
2023-05-04T23:54:44.801Z,9.63
